Terminal Aerodrome Forecast
Issued by NWS

Home | Current Version | Previous Version | Text Only | Print | Product List | Glossary On
Versions: 1 2 3 4 5 6 7 8 9 10 11 12 13 14 15 16 17 18 19 20 21 22
000
FTUS43 KAPX 200432 AAC
TAFPLN
TAF AMD
KPLN 200432Z 2005/2024 00000KT P6SM SKC
     FM200515 00000KT P6SM OVC018
     FM201400 VRB03KT P6SM OVC015=

USA.gov is the U.S. government's official web portal to all federal, state and local government web resources and services.